createdAt,value
2019-02-18T00:00:54.605Z,15.10
2019-02-18T00:02:56.275Z,14.27
2019-02-18T00:04:57.928Z,15.73
2019-02-18T00:06:59.574Z,14.23
2019-02-18T00:09:01.221Z,14.57
2019-02-18T00:11:02.880Z,14.00
2019-02-18T00:13:04.516Z,13.47
2019-02-18T00:15:06.221Z,12.17
2019-02-18T00:17:07.867Z,11.67
2019-02-18T00:19:09.568Z,13.10
2019-02-18T00:21:11.488Z,13.93
2019-02-18T00:23:13.460Z,16.10
2019-02-18T00:25:15.113Z,15.27
2019-02-18T00:27:16.755Z,14.40
2019-02-18T00:29:18.397Z,16.20
2019-02-18T00:31:20.064Z,14.87
2019-02-18T00:33:21.709Z,16.23
2019-02-18T00:35:23.864Z,16.83
2019-02-18T00:37:25.517Z,16.20
2019-02-18T00:39:27.513Z,15.80
2019-02-18T00:41:29.148Z,15.27
2019-02-18T00:43:30.788Z,15.27
2019-02-18T00:45:32.454Z,15.97
2019-02-18T00:47:34.127Z,14.57
2019-02-18T00:49:35.772Z,12.80
2019-02-18T00:51:37.668Z,13.77
2019-02-18T00:53:39.320Z,14.00
2019-02-18T00:55:41.321Z,13.70
2019-02-18T00:57:42.977Z,11.30
2019-02-18T00:59:44.619Z,12.17
2019-02-18T01:01:46.281Z,12.30
2019-02-18T01:03:47.933Z,12.30
2019-02-18T01:05:49.588Z,11.90
2019-02-18T01:07:51.240Z,12.70
2019-02-18T01:09:53.200Z,11.40
2019-02-18T01:11:54.852Z,13.40
2019-02-18T01:13:56.508Z,12.20
2019-02-18T01:15:58.156Z,12.23
2019-02-18T01:17:59.796Z,12.60
2019-02-18T01:20:01.458Z,11.10
2019-02-18T01:22:03.120Z,11.23
2019-02-18T01:24:05.365Z,12.43
2019-02-18T01:26:07.029Z,11.93
2019-02-18T01:28:08.693Z,11.23
2019-02-18T01:30:12.281Z,10.77
2019-02-18T01:32:14.236Z,10.03
2019-02-18T01:34:15.900Z,10.50
2019-02-18T01:36:17.556Z,10.27
2019-02-18T01:38:19.208Z,9.83
2019-02-18T01:40:20.860Z,10.27
2019-02-18T01:42:22.787Z,12.57
2019-02-18T01:44:24.420Z,9.97
2019-02-18T01:46:26.068Z,10.03
2019-02-18T01:48:27.708Z,9.73
2019-02-18T01:50:29.390Z,10.70
2019-02-18T01:52:31.141Z,10.87
2019-02-18T01:54:32.798Z,10.60
2019-02-18T01:56:34.911Z,10.30
2019-02-18T01:58:36.556Z,11.00
2019-02-18T02:00:38.247Z,12.03
2019-02-18T02:02:39.890Z,9.80
2019-02-18T02:04:41.540Z,10.90
2019-02-18T02:06:43.202Z,10.67
2019-02-18T02:08:44.850Z,10.50
2019-02-18T02:10:46.508Z,10.63
2019-02-18T02:12:48.496Z,9.47
2019-02-18T02:14:50.156Z,10.07
2019-02-18T02:16:51.829Z,10.77
2019-02-18T02:18:53.752Z,10.00
2019-02-18T02:20:55.408Z,10.60
2019-02-18T02:22:57.143Z,10.83
2019-02-18T02:24:58.828Z,12.07
2019-02-18T02:27:00.484Z,11.80
2019-02-18T02:29:02.135Z,11.27
2019-02-18T02:31:03.790Z,11.30
2019-02-18T02:33:05.429Z,10.43
2019-02-18T02:35:07.372Z,10.50
2019-02-18T02:37:09.048Z,11.30
2019-02-18T02:39:10.958Z,11.53
2019-02-18T02:41:12.618Z,10.87
2019-02-18T02:43:14.288Z,12.23
2019-02-18T02:45:15.969Z,11.53
2019-02-18T02:47:17.640Z,12.43
2019-02-18T02:49:19.320Z,12.27
2019-02-18T02:51:21.308Z,11.00
2019-02-18T02:53:22.944Z,11.63
2019-02-18T02:55:24.612Z,11.97
2019-02-18T02:57:26.272Z,11.60
2019-02-18T02:59:28.021Z,11.57
2019-02-18T03:01:29.677Z,11.77
2019-02-18T03:03:31.616Z,12.67
2019-02-18T03:05:33.269Z,11.90
2019-02-18T03:07:34.947Z,10.87
2019-02-18T03:09:36.624Z,11.60
2019-02-18T03:11:38.613Z,11.70
2019-02-18T03:13:40.259Z,11.83
2019-02-18T03:15:41.930Z,11.33
2019-02-18T03:17:43.584Z,10.57
2019-02-18T03:19:45.252Z,10.60
2019-02-18T03:21:46.935Z,10.80
2019-02-18T03:23:48.592Z,11.60
2019-02-18T03:25:51.772Z,9.27
2019-02-18T03:28:33.453Z,11.67
2019-02-18T03:30:56.806Z,9.53
2019-02-18T03:32:58.461Z,8.60
2019-02-18T03:35:00.851Z,10.20
2019-02-18T03:37:03.069Z,9.90
2019-02-18T03:39:05.592Z,11.23
2019-02-18T03:41:07.260Z,10.70
2019-02-18T03:43:08.912Z,10.37
2019-02-18T03:45:10.854Z,10.70
2019-02-18T03:47:12.512Z,10.37
2019-02-18T03:49:14.161Z,10.50
2019-02-18T03:51:15.832Z,8.40
2019-02-18T03:53:17.588Z,9.67
2019-02-18T03:55:19.261Z,9.97
2019-02-18T03:57:20.942Z,10.73
2019-02-18T03:59:22.599Z,10.27
2019-02-18T04:01:24.244Z,9.90
2019-02-18T04:03:25.911Z,9.07
2019-02-18T04:05:27.552Z,9.70
2019-02-18T04:07:29.227Z,9.43
2019-02-18T04:09:30.879Z,10.43
2019-02-18T04:11:32.533Z,10.97
2019-02-18T04:13:34.211Z,11.37
2019-02-18T04:15:35.959Z,10.53
2019-02-18T04:17:37.643Z,10.23
2019-02-18T04:19:39.298Z,10.50
2019-02-18T04:21:40.945Z,10.03
2019-02-18T04:23:42.951Z,10.17
2019-02-18T04:25:44.603Z,9.80
2019-02-18T04:27:46.257Z,9.40
2019-02-18T04:29:47.948Z,10.07
2019-02-18T04:31:49.589Z,10.10
2019-02-18T04:33:51.273Z,10.20
2019-02-18T04:35:52.900Z,10.77
2019-02-18T04:37:54.854Z,10.57
2019-02-18T04:39:57.020Z,10.20
2019-02-18T04:41:58.669Z,10.00
2019-02-18T04:44:00.332Z,10.40
2019-02-18T04:46:02.298Z,10.23
2019-02-18T04:48:03.960Z,9.10
2019-02-18T04:50:05.613Z,11.03
2019-02-18T04:52:07.256Z,10.23
2019-02-18T04:54:08.925Z,11.17
2019-02-18T04:56:10.569Z,9.20
2019-02-18T04:58:12.539Z,9.83
2019-02-18T05:00:14.256Z,9.30
2019-02-18T05:02:15.933Z,9.73
2019-02-18T05:04:17.584Z,11.07
2019-02-18T05:06:19.237Z,10.47
2019-02-18T05:08:20.962Z,10.57
2019-02-18T05:10:22.689Z,10.83
2019-02-18T05:12:24.345Z,10.70
2019-02-18T05:14:26.247Z,9.67
2019-02-18T05:16:27.885Z,11.03
2019-02-18T05:18:29.548Z,10.70
2019-02-18T05:20:31.230Z,11.00
2019-02-18T05:22:32.907Z,9.90
2019-02-18T05:24:34.567Z,10.40
2019-02-18T05:26:36.232Z,9.90
2019-02-18T05:28:37.889Z,10.50
2019-02-18T05:30:39.541Z,10.93
2019-02-18T05:32:41.194Z,10.17
2019-02-18T05:34:42.859Z,10.57
2019-02-18T05:36:44.521Z,10.47
2019-02-18T05:38:46.180Z,10.20
2019-02-18T05:40:47.816Z,10.30
2019-02-18T05:42:49.469Z,9.33
2019-02-18T05:44:51.141Z,10.50
2019-02-18T05:46:52.904Z,10.30
2019-02-18T05:48:54.556Z,10.13
2019-02-18T05:50:56.205Z,10.03
2019-02-18T05:52:57.888Z,9.77
2019-02-18T05:54:59.791Z,9.83
2019-02-18T05:57:01.463Z,11.83
2019-02-18T05:59:03.116Z,10.33
2019-02-18T06:01:04.765Z,10.73
2019-02-18T06:03:06.448Z,11.17
2019-02-18T06:05:08.091Z,10.77
2019-02-18T06:07:09.841Z,12.53
2019-02-18T06:09:11.500Z,12.00
2019-02-18T06:11:13.141Z,11.10
2019-02-18T06:13:14.833Z,11.50
2019-02-18T06:15:16.472Z,12.10
2019-02-18T06:17:18.117Z,13.20
2019-02-18T06:19:19.816Z,12.53
2019-02-18T06:21:21.468Z,13.17
2019-02-18T06:23:23.116Z,12.50
2019-02-18T06:25:24.765Z,12.57
2019-02-18T06:27:26.421Z,11.53
2019-02-18T06:29:28.285Z,13.50
2019-02-18T06:31:29.937Z,12.70
2019-02-18T06:33:31.582Z,14.20
2019-02-18T06:35:33.233Z,14.40
2019-02-18T06:37:34.944Z,12.47
2019-02-18T06:39:41.266Z,14.63
2019-02-18T06:41:40.225Z,12.67
2019-02-18T06:43:41.908Z,13.83
2019-02-18T06:46:15.293Z,37.40
2019-02-18T06:48:22.568Z,19.50
2019-02-18T06:50:24.218Z,16.50
2019-02-18T06:52:25.873Z,15.23
2019-02-18T06:54:27.531Z,14.00
2019-02-18T06:56:50.030Z,14.53
2019-02-18T06:58:59.387Z,13.17
2019-02-18T07:01:05.640Z,13.57
2019-02-18T07:03:18.582Z,12.40
2019-02-18T07:05:27.643Z,13.30
2019-02-18T07:07:44.404Z,13.57
2019-02-18T07:10:04.271Z,13.60
2019-02-18T07:12:18.839Z,14.70
2019-02-18T07:14:20.503Z,13.90
2019-02-18T07:16:22.136Z,13.30
2019-02-18T07:18:23.810Z,15.20
2019-02-18T07:20:25.796Z,18.60
2019-02-18T07:22:27.700Z,14.93
2019-02-18T07:24:29.360Z,11.70
2019-02-18T07:26:31.023Z,13.03
2019-02-18T07:28:32.664Z,13.37
2019-02-18T07:30:34.316Z,13.20
2019-02-18T07:32:35.965Z,14.17
2019-02-18T07:34:37.620Z,14.30
2019-02-18T07:36:39.272Z,15.13
2019-02-18T07:38:40.916Z,17.17
2019-02-18T07:40:42.559Z,13.17
2019-02-18T07:42:44.201Z,14.97
2019-02-18T07:44:45.880Z,17.53
2019-02-18T07:46:47.764Z,15.40
2019-02-18T07:48:49.425Z,14.87
2019-02-18T07:50:51.104Z,12.63
2019-02-18T07:52:52.753Z,12.47
2019-02-18T07:54:54.409Z,13.70
2019-02-18T07:56:56.052Z,13.03
2019-02-18T07:58:57.697Z,12.43
2019-02-18T08:00:59.356Z,13.47
2019-02-18T08:03:00.996Z,12.03
2019-02-18T08:05:02.756Z,12.30
2019-02-18T08:07:04.428Z,11.73
2019-02-18T08:09:06.279Z,13.73
2019-02-18T08:11:07.989Z,14.00
2019-02-18T08:13:09.670Z,13.97
2019-02-18T08:15:11.324Z,14.07
2019-02-18T08:17:12.981Z,14.50
2019-02-18T08:19:15.672Z,13.50
2019-02-18T08:21:17.573Z,14.20
2019-02-18T08:23:19.235Z,12.97
2019-02-18T08:25:20.884Z,13.50
2019-02-18T08:27:22.552Z,13.10
2019-02-18T08:29:24.196Z,13.00
2019-02-18T08:31:25.844Z,12.77
2019-02-18T08:33:27.485Z,12.80
2019-02-18T08:35:29.465Z,14.27
2019-02-18T08:37:31.354Z,13.70
2019-02-18T08:39:32.992Z,13.30
2019-02-18T08:41:34.643Z,13.60
2019-02-18T08:43:36.312Z,13.97
2019-02-18T08:45:38.221Z,12.90
2019-02-18T08:47:39.865Z,13.47
2019-02-18T08:49:41.509Z,13.43
2019-02-18T08:51:43.160Z,14.90
2019-02-18T08:53:44.808Z,14.60
2019-02-18T08:55:46.461Z,14.43
2019-02-18T08:57:48.109Z,14.03
2019-02-18T08:59:50.229Z,14.17
2019-02-18T09:01:51.917Z,13.63
2019-02-18T09:03:53.586Z,14.03
2019-02-18T09:05:55.249Z,15.10
2019-02-18T09:07:56.912Z,13.90
2019-02-18T09:09:58.813Z,13.63
2019-02-18T09:12:00.480Z,13.80
2019-02-18T09:14:02.121Z,14.00
2019-02-18T09:16:03.792Z,14.07
2019-02-18T09:18:05.423Z,13.83
2019-02-18T09:20:07.332Z,13.80
2019-02-18T09:22:27.290Z,14.10
2019-02-18T09:24:33.948Z,11.73
2019-02-18T09:26:35.602Z,12.70
2019-02-18T09:28:37.236Z,14.10
2019-02-18T09:30:40.839Z,12.73
2019-02-18T09:32:42.569Z,13.43
2019-02-18T09:34:44.236Z,13.87
2019-02-18T09:36:46.119Z,12.80
2019-02-18T09:38:47.765Z,13.73
2019-02-18T09:40:51.646Z,13.80
2019-02-18T09:42:52.956Z,14.77
2019-02-18T09:44:54.602Z,12.83
2019-02-18T09:46:56.278Z,14.00
2019-02-18T09:48:57.912Z,15.20
2019-02-18T09:51:00.320Z,14.10
2019-02-18T09:53:02.590Z,13.60
2019-02-18T09:55:05.184Z,14.70
2019-02-18T09:57:07.088Z,13.70
2019-02-18T09:59:08.754Z,13.73
2019-02-18T10:01:10.404Z,16.27
2019-02-18T10:03:12.040Z,14.63
2019-02-18T10:05:13.689Z,14.37
2019-02-18T10:07:15.368Z,14.63
2019-02-18T10:09:17.017Z,14.60
2019-02-18T10:11:18.668Z,13.63
2019-02-18T10:13:20.343Z,15.80
2019-02-18T10:15:22.004Z,14.40
2019-02-18T10:17:23.753Z,13.77
2019-02-18T10:19:25.392Z,14.67
2019-02-18T10:21:27.061Z,14.67
2019-02-18T10:23:28.728Z,14.03
2019-02-18T10:25:30.606Z,14.60
2019-02-18T10:27:32.312Z,14.40
2019-02-18T10:29:34.204Z,14.80
2019-02-18T10:31:35.857Z,14.30
2019-02-18T10:33:37.496Z,14.83
2019-02-18T10:35:39.165Z,14.90
2019-02-18T10:37:40.821Z,15.00
2019-02-18T10:39:42.786Z,14.87
2019-02-18T10:41:44.436Z,15.93
2019-02-18T10:43:46.096Z,15.93
2019-02-18T10:45:47.752Z,15.30
2019-02-18T10:47:49.404Z,14.90
2019-02-18T10:49:51.046Z,15.67
2019-02-18T10:51:52.714Z,16.10
2019-02-18T10:53:54.357Z,15.23
2019-02-18T10:55:56.004Z,15.10
2019-02-18T10:57:57.761Z,15.73
2019-02-18T10:59:59.838Z,14.90
2019-02-18T11:02:01.888Z,14.20
2019-02-18T11:04:04.396Z,14.63
2019-02-18T11:06:06.277Z,15.33
2019-02-18T11:08:07.929Z,13.67
2019-02-18T11:10:11.208Z,14.97
2019-02-18T11:12:12.870Z,16.00
2019-02-18T11:14:14.793Z,15.50
2019-02-18T11:16:16.477Z,16.30
2019-02-18T11:18:18.152Z,15.80
2019-02-18T11:20:19.805Z,15.73
2019-02-18T11:22:21.469Z,15.80
2019-02-18T11:24:23.449Z,15.67
2019-02-18T11:26:25.696Z,14.77
2019-02-18T11:28:27.348Z,15.63
2019-02-18T11:30:29.015Z,16.57
2019-02-18T11:32:30.668Z,14.03
2019-02-18T11:34:32.314Z,13.93
2019-02-18T11:36:34.628Z,14.40
2019-02-18T11:38:36.280Z,13.23
2019-02-18T11:40:37.948Z,14.40
2019-02-18T11:42:39.584Z,13.33
2019-02-18T11:44:41.732Z,14.40
2019-02-18T11:46:43.638Z,12.50
2019-02-18T11:48:45.317Z,14.33
2019-02-18T11:50:47.188Z,13.50
2019-02-18T11:52:49.357Z,13.20
2019-02-18T11:54:50.992Z,13.00
2019-02-18T11:56:52.637Z,13.30
2019-02-18T11:58:54.296Z,13.63
2019-02-18T12:00:55.965Z,12.67
2019-02-18T12:03:04.002Z,12.60
2019-02-18T12:05:02.100Z,12.83
2019-02-18T12:07:03.744Z,12.20
2019-02-18T12:09:05.524Z,12.27
2019-02-18T12:11:07.568Z,12.37
2019-02-18T12:13:09.239Z,12.07
2019-02-18T12:15:10.990Z,11.60
2019-02-18T12:17:20.230Z,13.67
2019-02-18T12:19:16.208Z,12.10
2019-02-18T12:21:17.852Z,12.13
2019-02-18T12:23:19.501Z,12.60
2019-02-18T12:25:21.219Z,13.03
2019-02-18T12:27:23.225Z,12.37
2019-02-18T12:29:26.562Z,12.60
2019-02-18T12:31:28.434Z,12.80
2019-02-18T12:33:30.107Z,12.93
2019-02-18T12:35:33.341Z,12.73
2019-02-18T12:37:35.314Z,12.93
2019-02-18T12:39:37.285Z,11.80
2019-02-18T12:41:48.140Z,11.77
2019-02-18T12:43:42.504Z,12.03
2019-02-18T12:45:44.145Z,12.83
2019-02-18T12:47:45.797Z,12.30
2019-02-18T12:49:47.444Z,12.17
2019-02-18T12:51:49.449Z,12.73
2019-02-18T12:53:51.204Z,12.00
2019-02-18T12:55:52.968Z,11.50
2019-02-18T12:57:54.720Z,11.90
2019-02-18T12:59:56.458Z,12.63
2019-02-18T13:01:58.232Z,12.33
2019-02-18T13:04:00.007Z,11.17
2019-02-18T13:06:01.765Z,12.63
2019-02-18T13:08:03.544Z,11.87
2019-02-18T13:10:05.570Z,11.40
2019-02-18T13:12:07.296Z,12.70
2019-02-18T13:14:08.952Z,11.37
2019-02-18T13:16:10.600Z,12.80
2019-02-18T13:18:12.352Z,11.83
2019-02-18T13:20:14.008Z,11.00
2019-02-18T13:22:15.768Z,11.00
2019-02-18T13:24:17.428Z,11.63
2019-02-18T13:26:19.195Z,13.00
2019-02-18T13:28:20.840Z,12.30
2019-02-18T13:30:22.480Z,11.97
2019-02-18T13:32:24.124Z,12.10
2019-02-18T13:34:25.786Z,11.00
2019-02-18T13:36:27.428Z,12.00
2019-02-18T13:38:29.076Z,11.83
2019-02-18T13:40:30.748Z,11.97
2019-02-18T13:42:32.390Z,11.87
2019-02-18T13:44:34.667Z,12.80
2019-02-18T13:46:36.309Z,13.07
2019-02-18T13:48:37.961Z,11.93
2019-02-18T13:50:39.908Z,11.80
2019-02-18T13:52:42.148Z,11.83
2019-02-18T13:54:43.805Z,12.10
2019-02-18T13:56:45.445Z,12.37
2019-02-18T13:58:47.092Z,11.90
2019-02-18T14:00:48.740Z,12.80
2019-02-18T14:02:50.696Z,12.07
2019-02-18T14:04:52.352Z,12.77
2019-02-18T14:06:53.997Z,12.67
2019-02-18T14:08:55.648Z,11.77
2019-02-18T14:10:57.904Z,12.27
2019-02-18T14:12:59.540Z,12.83
2019-02-18T14:15:01.219Z,14.00
2019-02-18T14:17:02.956Z,13.80
2019-02-18T14:19:04.904Z,14.27
2019-02-18T14:21:06.836Z,13.70
2019-02-18T14:23:08.486Z,13.90
2019-02-18T14:25:10.241Z,13.40
2019-02-18T14:27:11.908Z,13.90
2019-02-18T14:29:13.565Z,12.97
2019-02-18T14:31:15.204Z,13.47
2019-02-18T14:33:16.868Z,13.80
2019-02-18T14:35:18.519Z,13.30
2019-02-18T14:37:20.292Z,13.40
2019-02-18T14:39:25.349Z,13.57
2019-02-18T14:41:27.428Z,13.43
2019-02-18T14:43:29.088Z,13.70
2019-02-18T14:45:30.732Z,13.43
2019-02-18T14:47:32.380Z,12.40
2019-02-18T14:49:34.048Z,12.90
2019-02-18T14:51:35.789Z,11.70
2019-02-18T14:53:37.540Z,12.37
2019-02-18T14:55:39.188Z,12.67
2019-02-18T14:57:40.832Z,12.50
2019-02-18T14:59:42.827Z,12.80
2019-02-18T15:01:44.477Z,13.57
2019-02-18T15:03:46.738Z,12.33
2019-02-18T15:05:48.804Z,12.60
2019-02-18T15:07:50.471Z,13.63
2019-02-18T15:09:52.167Z,12.97
2019-02-18T15:11:54.210Z,13.63
2019-02-18T15:13:55.875Z,13.03
2019-02-18T15:15:57.548Z,14.20
2019-02-18T15:17:59.537Z,15.10
2019-02-18T15:20:01.206Z,13.00
2019-02-18T15:22:02.949Z,14.30
2019-02-18T15:24:04.605Z,13.53
2019-02-18T15:26:06.348Z,13.20
2019-02-18T15:28:08.264Z,14.00
2019-02-18T15:30:10.149Z,13.63
2019-02-18T15:32:11.795Z,13.70
2019-02-18T15:34:13.459Z,13.83
2019-02-18T15:36:15.425Z,12.10
2019-02-18T15:38:17.616Z,11.50
2019-02-18T15:40:20.168Z,12.97
2019-02-18T15:42:21.896Z,13.53
2019-02-18T15:44:23.668Z,11.97
2019-02-18T15:46:25.328Z,13.10
2019-02-18T15:48:26.992Z,12.20
2019-02-18T15:50:28.885Z,11.57
2019-02-18T15:52:30.807Z,12.60
2019-02-18T15:54:32.495Z,12.60
2019-02-18T15:56:34.428Z,11.90
2019-02-18T15:58:36.068Z,11.50
2019-02-18T16:00:37.724Z,10.80
2019-02-18T16:02:39.370Z,11.07
2019-02-18T16:04:41.825Z,11.37
2019-02-18T16:06:43.470Z,11.93
2019-02-18T16:08:45.112Z,11.47
2019-02-18T16:10:47.006Z,10.37
2019-02-18T16:12:50.782Z,11.10
2019-02-18T16:14:52.209Z,12.67
2019-02-18T16:16:53.851Z,11.57
2019-02-18T16:18:55.552Z,10.83
2019-02-18T16:20:57.232Z,11.70
2019-02-18T16:22:58.872Z,11.53
2019-02-18T16:25:00.532Z,12.57
2019-02-18T16:27:02.191Z,11.27
2019-02-18T16:29:03.833Z,12.47
2019-02-18T16:31:06.232Z,11.33
2019-02-18T16:33:07.893Z,12.67
2019-02-18T16:35:09.955Z,11.17
2019-02-18T16:37:11.889Z,12.10
2019-02-18T16:39:13.628Z,11.20
2019-02-18T16:41:15.572Z,10.90
2019-02-18T16:43:17.220Z,11.90
2019-02-18T16:45:18.930Z,11.17
2019-02-18T16:47:20.604Z,11.97
2019-02-18T16:49:22.748Z,11.47
2019-02-18T16:51:24.423Z,11.67
2019-02-18T16:53:26.051Z,10.70
2019-02-18T16:55:27.715Z,11.90
2019-02-18T16:57:29.383Z,11.10
2019-02-18T16:59:31.144Z,11.20
2019-02-18T17:01:32.825Z,12.40
2019-02-18T17:03:34.560Z,11.13
2019-02-18T17:05:36.212Z,11.47
2019-02-18T17:07:38.640Z,11.40
2019-02-18T17:09:40.294Z,10.97
2019-02-18T17:11:41.952Z,11.23
2019-02-18T17:13:43.597Z,10.53
2019-02-18T17:15:45.788Z,11.67
2019-02-18T17:17:47.424Z,11.73
2019-02-18T17:19:49.076Z,11.63
2019-02-18T17:21:50.804Z,12.17
2019-02-18T17:23:53.089Z,12.37
2019-02-18T17:25:57.165Z,11.60
2019-02-18T17:27:58.900Z,12.53
2019-02-18T17:30:00.846Z,12.90
2019-02-18T17:32:02.588Z,11.30
2019-02-18T17:34:04.233Z,11.30
2019-02-18T17:36:06.201Z,11.97
2019-02-18T17:38:07.880Z,12.73
2019-02-18T17:40:10.381Z,12.37
2019-02-18T17:42:12.084Z,13.57
2019-02-18T17:44:20.001Z,12.13
2019-02-18T17:46:17.584Z,12.30
2019-02-18T17:48:19.259Z,12.80
2019-02-18T17:50:21.794Z,12.43
2019-02-18T17:52:23.468Z,13.13
2019-02-18T17:54:25.492Z,13.27
2019-02-18T17:56:27.151Z,12.63
2019-02-18T17:58:28.824Z,14.10
2019-02-18T18:00:32.278Z,12.50
2019-02-18T18:02:34.325Z,12.57
2019-02-18T18:04:36.284Z,13.13
2019-02-18T18:06:37.928Z,14.40
2019-02-18T18:08:40.112Z,13.33
2019-02-18T18:10:41.948Z,13.97
2019-02-18T18:12:43.620Z,13.73
2019-02-18T18:14:45.247Z,14.40
2019-02-18T18:16:47.288Z,16.03
2019-02-18T18:18:48.940Z,13.53
2019-02-18T18:20:51.192Z,14.40
2019-02-18T18:22:52.848Z,13.93
2019-02-18T18:24:54.512Z,12.80
2019-02-18T18:26:56.148Z,14.80
2019-02-18T18:28:58.075Z,14.07
2019-02-18T18:30:59.710Z,14.20
2019-02-18T18:33:01.465Z,13.43
2019-02-18T18:35:03.781Z,13.43
2019-02-18T18:37:05.673Z,13.63
2019-02-18T18:39:07.647Z,13.77
2019-02-18T18:41:09.288Z,14.33
2019-02-18T18:43:11.547Z,15.07
2019-02-18T18:45:13.232Z,14.80
2019-02-18T18:47:14.888Z,14.57
2019-02-18T18:49:16.541Z,13.20
2019-02-18T18:51:18.197Z,15.40
2019-02-18T18:53:19.844Z,15.47
2019-02-18T18:55:21.511Z,14.70
2019-02-18T18:57:23.468Z,14.13
2019-02-18T18:59:25.121Z,15.90
2019-02-18T19:01:27.284Z,15.50
2019-02-18T19:03:29.211Z,13.77
2019-02-18T19:05:30.852Z,15.20
2019-02-18T19:07:32.528Z,14.23
2019-02-18T19:09:34.460Z,15.40
2019-02-18T19:11:36.128Z,15.07
2019-02-18T19:13:42.066Z,16.03
2019-02-18T19:15:49.412Z,14.73
2019-02-18T19:17:45.192Z,12.97
2019-02-18T19:19:47.368Z,13.93
2019-02-18T19:21:49.308Z,14.63
2019-02-18T19:23:50.972Z,14.13
2019-02-18T19:25:52.613Z,14.40
2019-02-18T19:27:54.263Z,14.27
2019-02-18T19:29:55.984Z,14.30
2019-02-18T19:31:57.627Z,13.97
2019-02-18T19:33:59.290Z,14.73
2019-02-18T19:36:01.305Z,16.30
2019-02-18T19:38:03.445Z,15.20
2019-02-18T19:40:06.399Z,15.30
2019-02-18T19:42:08.044Z,14.80
2019-02-18T19:44:09.990Z,14.63
2019-02-18T19:46:11.637Z,12.70
2019-02-18T19:48:13.536Z,14.37
2019-02-18T19:50:15.192Z,14.07
2019-02-18T19:52:16.844Z,13.17
2019-02-18T19:54:18.520Z,13.63
2019-02-18T19:56:20.764Z,13.67
2019-02-18T19:58:22.716Z,12.50
2019-02-18T20:00:24.356Z,12.27
2019-02-18T20:02:26.031Z,11.17
2019-02-18T20:04:28.095Z,10.70
2019-02-18T20:06:29.740Z,12.07
2019-02-18T20:08:31.688Z,12.33
2019-02-18T20:10:33.332Z,11.77
2019-02-18T20:12:34.977Z,11.37
2019-02-18T20:14:36.632Z,12.40
2019-02-18T20:16:38.277Z,13.10
2019-02-18T20:18:40.204Z,13.53
2019-02-18T20:20:41.860Z,13.53
2019-02-18T20:22:44.345Z,11.77
2019-02-18T20:24:46.232Z,12.70
2019-02-18T20:26:47.880Z,12.97
2019-02-18T20:28:49.563Z,13.20
2019-02-18T20:30:51.465Z,13.80
2019-02-18T20:32:53.192Z,12.57
2019-02-18T20:34:54.844Z,12.70
2019-02-18T20:36:56.477Z,12.27
2019-02-18T20:38:58.587Z,11.90
2019-02-18T20:41:00.282Z,13.23
2019-02-18T20:43:01.920Z,12.70
2019-02-18T20:45:03.992Z,14.20
2019-02-18T20:47:05.648Z,13.20
2019-02-18T20:49:07.793Z,11.93
2019-02-18T20:51:09.437Z,13.43
2019-02-18T20:53:11.081Z,12.50
2019-02-18T20:55:12.756Z,13.57
2019-02-18T20:57:14.401Z,12.93
2019-02-18T20:59:16.364Z,14.20
2019-02-18T21:01:18.019Z,12.70
2019-02-18T21:03:19.684Z,13.43
2019-02-18T21:05:21.628Z,13.33
2019-02-18T21:07:23.295Z,13.70
2019-02-18T21:09:24.980Z,13.07
2019-02-18T21:11:26.644Z,11.20
2019-02-18T21:13:28.277Z,13.40
2019-02-18T21:15:30.433Z,12.70
2019-02-18T21:17:32.080Z,13.80
2019-02-18T21:19:33.743Z,12.50
2019-02-18T21:21:35.398Z,13.00
2019-02-18T21:23:37.031Z,12.60
2019-02-18T21:25:38.970Z,13.87
2019-02-18T21:27:40.612Z,13.47
2019-02-18T21:29:42.252Z,14.10
2019-02-18T21:31:43.933Z,12.63
2019-02-18T21:33:45.596Z,13.33
2019-02-18T21:35:47.240Z,13.10
2019-02-18T21:37:48.897Z,13.53
2019-02-18T21:39:50.784Z,12.70
2019-02-18T21:41:53.004Z,14.00
2019-02-18T21:43:54.639Z,13.23
2019-02-18T21:45:56.292Z,14.03
2019-02-18T21:47:58.233Z,13.23
2019-02-18T21:49:59.881Z,14.43
2019-02-18T21:52:01.528Z,14.00
2019-02-18T21:54:03.172Z,14.40
2019-02-18T21:56:04.829Z,14.40
2019-02-18T21:58:06.788Z,14.40
2019-02-18T22:00:15.199Z,13.57
2019-02-18T22:02:16.840Z,15.10
2019-02-18T22:04:18.503Z,13.90
2019-02-18T22:06:20.162Z,12.70
2019-02-18T22:08:22.232Z,14.00
2019-02-18T22:10:23.888Z,13.47
2019-02-18T22:12:25.519Z,13.17
2019-02-18T22:14:33.274Z,11.50
2019-02-18T22:16:30.728Z,12.00
2019-02-18T22:18:32.372Z,12.80
2019-02-18T22:20:34.308Z,13.10
2019-02-18T22:22:35.956Z,12.70
2019-02-18T22:24:37.596Z,11.57
2019-02-18T22:26:39.267Z,12.53
2019-02-18T22:28:40.928Z,15.23
2019-02-18T22:30:42.617Z,14.00
2019-02-18T22:32:44.256Z,13.50
2019-02-18T22:34:46.299Z,14.50
2019-02-18T22:36:47.994Z,13.67
2019-02-18T22:38:49.712Z,13.20
2019-02-18T22:40:51.388Z,14.80
2019-02-18T22:42:53.428Z,13.37
2019-02-18T22:44:55.380Z,14.17
2019-02-18T22:46:57.341Z,12.87
2019-02-18T22:48:58.977Z,13.50
2019-02-18T22:51:01.368Z,14.90
2019-02-18T22:53:03.305Z,14.00
2019-02-18T22:55:05.009Z,12.17
2019-02-18T22:57:07.008Z,13.00
2019-02-18T22:59:08.668Z,11.13
2019-02-18T23:01:10.840Z,11.33
2019-02-18T23:03:12.484Z,11.50
2019-02-18T23:05:14.120Z,10.13
2019-02-18T23:07:15.796Z,10.23
2019-02-18T23:09:17.532Z,11.67
2019-02-18T23:11:19.193Z,10.27
2019-02-18T23:13:20.836Z,10.30
2019-02-18T23:15:22.472Z,10.60
2019-02-18T23:17:24.124Z,10.47
2019-02-18T23:19:25.768Z,10.83
2019-02-18T23:21:27.453Z,11.60
2019-02-18T23:23:29.092Z,11.33
2019-02-18T23:25:31.236Z,11.20
2019-02-18T23:27:32.888Z,11.77
2019-02-18T23:29:34.604Z,11.20
2019-02-18T23:31:36.271Z,11.63
2019-02-18T23:33:38.400Z,10.93
2019-02-18T23:35:40.042Z,10.93
2019-02-18T23:37:41.976Z,10.40
2019-02-18T23:39:43.644Z,9.97
2019-02-18T23:41:45.315Z,9.93
2019-02-18T23:43:47.280Z,11.47
2019-02-18T23:45:48.929Z,9.63
2019-02-18T23:47:50.576Z,10.10
2019-02-18T23:49:52.216Z,9.60
2019-02-18T23:51:54.175Z,10.13
2019-02-18T23:53:55.816Z,11.27
2019-02-18T23:55:57.452Z,11.57
2019-02-18T23:57:59.096Z,9.50
